sensor_id;sensor_type;location;lat;lon;timestamp;temperature;humidity
5286;DHT22;2665;53.112;7.358;2024-03-22T00:01:58;9.40;99.90
5286;DHT22;2665;53.112;7.358;2024-03-22T00:04:23;9.50;1.00
5286;DHT22;2665;53.112;7.358;2024-03-22T00:06:49;9.50;99.90
5286;DHT22;2665;53.112;7.358;2024-03-22T00:09:16;9.50;99.90
5286;DHT22;2665;53.112;7.358;2024-03-22T00:11:43;9.50;99.90
5286;DHT22;2665;53.112;7.358;2024-03-22T00:14:09;9.50;1.00
5286;DHT22;2665;53.112;7.358;2024-03-22T00:16:35;9.50;99.90
5286;DHT22;2665;53.112;7.358;2024-03-22T00:19:01;9.50;99.90
5286;DHT22;2665;53.112;7.358;2024-03-22T00:21:27;9.50;99.90
5286;DHT22;2665;53.112;7.358;2024-03-22T00:23:53;9.50;99.90
5286;DHT22;2665;53.112;7.358;2024-03-22T00:26:19;9.60;99.90
5286;DHT22;2665;53.112;7.358;2024-03-22T00:28:45;9.50;99.90
5286;DHT22;2665;53.112;7.358;2024-03-22T00:31:10;9.50;99.90
5286;DHT22;2665;53.112;7.358;2024-03-22T00:33:36;9.60;99.90
5286;DHT22;2665;53.112;7.358;2024-03-22T00:36:02;9.60;99.90
5286;DHT22;2665;53.112;7.358;2024-03-22T00:38:28;9.60;99.90
5286;DHT22;2665;53.112;7.358;2024-03-22T00:40:54;9.60;99.90
5286;DHT22;2665;53.112;7.358;2024-03-22T00:43:20;9.60;99.90
5286;DHT22;2665;53.112;7.358;2024-03-22T00:45:46;9.60;1.00
5286;DHT22;2665;53.112;7.358;2024-03-22T00:48:12;9.60;1.00
5286;DHT22;2665;53.112;7.358;2024-03-22T00:50:38;9.60;1.00
5286;DHT22;2665;53.112;7.358;2024-03-22T00:53:03;9.60;1.00
5286;DHT22;2665;53.112;7.358;2024-03-22T00:55:31;9.60;99.90
5286;DHT22;2665;53.112;7.358;2024-03-22T00:57:56;9.60;99.90
5286;DHT22;2665;53.112;7.358;2024-03-22T01:00:22;9.60;99.90
5286;DHT22;2665;53.112;7.358;2024-03-22T01:02:49;9.60;99.90
5286;DHT22;2665;53.112;7.358;2024-03-22T01:05:16;9.60;99.90
5286;DHT22;2665;53.112;7.358;2024-03-22T01:07:42;9.60;1.00
5286;DHT22;2665;53.112;7.358;2024-03-22T01:10:07;9.70;1.00
5286;DHT22;2665;53.112;7.358;2024-03-22T01:12:33;9.70;1.00
5286;DHT22;2665;53.112;7.358;2024-03-22T01:14:59;9.70;1.00
5286;DHT22;2665;53.112;7.358;2024-03-22T01:17:24;9.70;1.00
5286;DHT22;2665;53.112;7.358;2024-03-22T01:19:51;9.70;1.00
5286;DHT22;2665;53.112;7.358;2024-03-22T01:22:17;9.70;1.00
5286;DHT22;2665;53.112;7.358;2024-03-22T01:24:44;9.80;1.00
5286;DHT22;2665;53.112;7.358;2024-03-22T01:27:10;9.80;1.00
5286;DHT22;2665;53.112;7.358;2024-03-22T01:29:35;9.80;1.00
5286;DHT22;2665;53.112;7.358;2024-03-22T01:32:02;9.80;65.20
5286;DHT22;2665;53.112;7.358;2024-03-22T01:34:28;9.80;99.90
5286;DHT22;2665;53.112;7.358;2024-03-22T01:36:53;9.80;99.90
5286;DHT22;2665;53.112;7.358;2024-03-22T01:39:20;9.80;99.90
5286;DHT22;2665;53.112;7.358;2024-03-22T01:41:49;9.80;99.90
5286;DHT22;2665;53.112;7.358;2024-03-22T01:44:15;9.80;1.00
5286;DHT22;2665;53.112;7.358;2024-03-22T01:46:41;9.80;1.00
5286;DHT22;2665;53.112;7.358;2024-03-22T01:49:12;9.80;1.00
5286;DHT22;2665;53.112;7.358;2024-03-22T01:51:39;9.90;1.00
5286;DHT22;2665;53.112;7.358;2024-03-22T01:54:09;9.90;1.00
5286;DHT22;2665;53.112;7.358;2024-03-22T01:56:38;9.90;1.00
5286;DHT22;2665;53.112;7.358;2024-03-22T01:59:05;9.90;18.60
5286;DHT22;2665;53.112;7.358;2024-03-22T02:01:32;9.90;1.00
5286;DHT22;2665;53.112;7.358;2024-03-22T02:03:57;10.00;15.00
5286;DHT22;2665;53.112;7.358;2024-03-22T02:06:23;10.00;99.90
5286;DHT22;2665;53.112;7.358;2024-03-22T02:08:49;10.00;99.90
5286;DHT22;2665;53.112;7.358;2024-03-22T02:11:14;10.00;99.90
5286;DHT22;2665;53.112;7.358;2024-03-22T02:13:40;10.00;99.90
5286;DHT22;2665;53.112;7.358;2024-03-22T02:16:06;10.10;99.90
5286;DHT22;2665;53.112;7.358;2024-03-22T02:18:32;10.10;99.90
5286;DHT22;2665;53.112;7.358;2024-03-22T02:20:57;10.10;99.90
5286;DHT22;2665;53.112;7.358;2024-03-22T02:23:41;10.10;99.90
5286;DHT22;2665;53.112;7.358;2024-03-22T02:26:07;10.10;99.90
5286;DHT22;2665;53.112;7.358;2024-03-22T02:28:34;10.20;99.90
5286;DHT22;2665;53.112;7.358;2024-03-22T02:31:01;10.20;99.90
5286;DHT22;2665;53.112;7.358;2024-03-22T02:33:26;10.20;99.90
5286;DHT22;2665;53.112;7.358;2024-03-22T02:35:52;10.20;99.90
5286;DHT22;2665;53.112;7.358;2024-03-22T02:38:18;10.20;99.90
5286;DHT22;2665;53.112;7.358;2024-03-22T02:40:45;10.20;1.00
5286;DHT22;2665;53.112;7.358;2024-03-22T02:43:11;10.20;1.00
5286;DHT22;2665;53.112;7.358;2024-03-22T02:45:37;10.20;1.00
5286;DHT22;2665;53.112;7.358;2024-03-22T02:48:03;10.20;1.00
5286;DHT22;2665;53.112;7.358;2024-03-22T02:50:33;10.20;1.00
5286;DHT22;2665;53.112;7.358;2024-03-22T02:52:59;10.20;1.00
5286;DHT22;2665;53.112;7.358;2024-03-22T02:55:24;10.20;1.00
5286;DHT22;2665;53.112;7.358;2024-03-22T02:57:50;10.30;1.00
5286;DHT22;2665;53.112;7.358;2024-03-22T03:00:16;10.30;1.00
5286;DHT22;2665;53.112;7.358;2024-03-22T03:02:42;10.30;1.00
5286;DHT22;2665;53.112;7.358;2024-03-22T03:05:08;10.30;1.00
5286;DHT22;2665;53.112;7.358;2024-03-22T03:07:34;10.30;1.00
5286;DHT22;2665;53.112;7.358;2024-03-22T03:09:59;10.30;1.00
5286;DHT22;2665;53.112;7.358;2024-03-22T03:12:25;10.30;1.00
5286;DHT22;2665;53.112;7.358;2024-03-22T03:14:51;10.30;1.00
5286;DHT22;2665;53.112;7.358;2024-03-22T03:17:16;10.40;1.00
5286;DHT22;2665;53.112;7.358;2024-03-22T03:19:42;10.30;1.00
5286;DHT22;2665;53.112;7.358;2024-03-22T03:22:07;10.30;1.00
5286;DHT22;2665;53.112;7.358;2024-03-22T03:24:33;10.40;1.00
5286;DHT22;2665;53.112;7.358;2024-03-22T03:26:59;10.40;1.00
5286;DHT22;2665;53.112;7.358;2024-03-22T03:29:24;10.40;1.00
5286;DHT22;2665;53.112;7.358;2024-03-22T03:31:50;10.40;1.00
5286;DHT22;2665;53.112;7.358;2024-03-22T03:34:16;10.40;1.00
5286;DHT22;2665;53.112;7.358;2024-03-22T03:36:41;10.40;1.00
5286;DHT22;2665;53.112;7.358;2024-03-22T03:39:07;10.40;1.00
5286;DHT22;2665;53.112;7.358;2024-03-22T03:41:33;10.40;1.00
5286;DHT22;2665;53.112;7.358;2024-03-22T03:43:58;10.40;1.00
5286;DHT22;2665;53.112;7.358;2024-03-22T03:46:24;10.40;1.00
5286;DHT22;2665;53.112;7.358;2024-03-22T03:48:50;10.40;1.00
5286;DHT22;2665;53.112;7.358;2024-03-22T03:51:15;10.40;1.00
5286;DHT22;2665;53.112;7.358;2024-03-22T03:53:41;10.40;1.00
5286;DHT22;2665;53.112;7.358;2024-03-22T03:56:06;10.40;1.00
5286;DHT22;2665;53.112;7.358;2024-03-22T03:58:32;10.40;1.00
5286;DHT22;2665;53.112;7.358;2024-03-22T04:00:58;10.40;1.00
5286;DHT22;2665;53.112;7.358;2024-03-22T04:03:24;10.40;1.00
5286;DHT22;2665;53.112;7.358;2024-03-22T04:05:58;10.30;1.00
5286;DHT22;2665;53.112;7.358;2024-03-22T04:08:28;10.30;1.00
5286;DHT22;2665;53.112;7.358;2024-03-22T04:10:54;10.30;1.00
5286;DHT22;2665;53.112;7.358;2024-03-22T04:13:22;10.30;1.00
5286;DHT22;2665;53.112;7.358;2024-03-22T04:15:48;10.30;1.00
5286;DHT22;2665;53.112;7.358;2024-03-22T04:18:14;10.30;1.00
5286;DHT22;2665;53.112;7.358;2024-03-22T04:20:39;10.30;1.00
5286;DHT22;2665;53.112;7.358;2024-03-22T04:23:05;10.30;1.00
5286;DHT22;2665;53.112;7.358;2024-03-22T04:25:30;10.30;1.00
5286;DHT22;2665;53.112;7.358;2024-03-22T04:27:56;10.30;1.00
5286;DHT22;2665;53.112;7.358;2024-03-22T04:30:22;10.30;1.00
5286;DHT22;2665;53.112;7.358;2024-03-22T04:32:47;10.30;1.00
5286;DHT22;2665;53.112;7.358;2024-03-22T04:35:13;10.30;1.00
5286;DHT22;2665;53.112;7.358;2024-03-22T04:37:39;10.30;1.00
5286;DHT22;2665;53.112;7.358;2024-03-22T04:40:05;10.40;1.30
5286;DHT22;2665;53.112;7.358;2024-03-22T04:42:31;10.40;4.00
5286;DHT22;2665;53.112;7.358;2024-03-22T04:44:57;10.40;5.90
5286;DHT22;2665;53.112;7.358;2024-03-22T04:47:23;10.40;2.90
5286;DHT22;2665;53.112;7.358;2024-03-22T04:49:49;10.50;3.90
5286;DHT22;2665;53.112;7.358;2024-03-22T04:52:14;10.40;4.20
5286;DHT22;2665;53.112;7.358;2024-03-22T04:54:40;10.50;1.00
5286;DHT22;2665;53.112;7.358;2024-03-22T04:57:05;10.50;1.00
5286;DHT22;2665;53.112;7.358;2024-03-22T04:59:31;10.50;1.00
5286;DHT22;2665;53.112;7.358;2024-03-22T05:01:57;10.50;1.00
5286;DHT22;2665;53.112;7.358;2024-03-22T05:04:22;10.50;1.00
5286;DHT22;2665;53.112;7.358;2024-03-22T05:06:48;10.50;1.00
5286;DHT22;2665;53.112;7.358;2024-03-22T05:09:13;10.50;1.80
5286;DHT22;2665;53.112;7.358;2024-03-22T05:11:39;10.50;3.10
5286;DHT22;2665;53.112;7.358;2024-03-22T05:14:05;10.50;7.20
5286;DHT22;2665;53.112;7.358;2024-03-22T05:16:30;10.50;10.40
5286;DHT22;2665;53.112;7.358;2024-03-22T05:18:56;10.50;13.30
5286;DHT22;2665;53.112;7.358;2024-03-22T05:21:22;10.50;14.00
5286;DHT22;2665;53.112;7.358;2024-03-22T05:23:47;10.50;17.20
5286;DHT22;2665;53.112;7.358;2024-03-22T05:26:13;10.50;16.30
5286;DHT22;2665;53.112;7.358;2024-03-22T05:28:38;10.50;17.50
5286;DHT22;2665;53.112;7.358;2024-03-22T05:31:04;10.50;18.20
5286;DHT22;2665;53.112;7.358;2024-03-22T05:33:29;10.50;17.50
5286;DHT22;2665;53.112;7.358;2024-03-22T05:35:55;10.50;17.90
5286;DHT22;2665;53.112;7.358;2024-03-22T05:38:21;10.50;14.60
5286;DHT22;2665;53.112;7.358;2024-03-22T05:40:48;10.60;15.80
5286;DHT22;2665;53.112;7.358;2024-03-22T05:43:14;10.50;15.90
5286;DHT22;2665;53.112;7.358;2024-03-22T05:45:40;10.60;15.50
5286;DHT22;2665;53.112;7.358;2024-03-22T05:48:06;10.60;14.30
5286;DHT22;2665;53.112;7.358;2024-03-22T05:50:32;10.60;13.70
5286;DHT22;2665;53.112;7.358;2024-03-22T05:52:57;10.60;13.60
5286;DHT22;2665;53.112;7.358;2024-03-22T05:55:23;10.60;12.30
5286;DHT22;2665;53.112;7.358;2024-03-22T05:57:49;10.60;11.40
5286;DHT22;2665;53.112;7.358;2024-03-22T06:00:15;10.60;11.00
5286;DHT22;2665;53.112;7.358;2024-03-22T06:02:40;10.60;11.80
5286;DHT22;2665;53.112;7.358;2024-03-22T06:05:06;10.60;11.70
5286;DHT22;2665;53.112;7.358;2024-03-22T06:07:32;10.60;12.00
5286;DHT22;2665;53.112;7.358;2024-03-22T06:10:06;10.60;11.60
5286;DHT22;2665;53.112;7.358;2024-03-22T06:12:31;10.60;9.80
5286;DHT22;2665;53.112;7.358;2024-03-22T06:14:57;10.60;8.00
5286;DHT22;2665;53.112;7.358;2024-03-22T06:17:23;10.50;1.00
5286;DHT22;2665;53.112;7.358;2024-03-22T06:19:48;10.40;1.00
5286;DHT22;2665;53.112;7.358;2024-03-22T06:22:14;10.30;17.60
5286;DHT22;2665;53.112;7.358;2024-03-22T06:24:39;10.10;48.10
5286;DHT22;2665;53.112;7.358;2024-03-22T06:27:05;10.10;76.10
5286;DHT22;2665;53.112;7.358;2024-03-22T06:29:32;10.00;93.70
5286;DHT22;2665;53.112;7.358;2024-03-22T06:31:58;10.00;99.90
5286;DHT22;2665;53.112;7.358;2024-03-22T06:34:23;10.00;99.90
5286;DHT22;2665;53.112;7.358;2024-03-22T06:36:50;10.10;99.90
5286;DHT22;2665;53.112;7.358;2024-03-22T06:39:16;10.00;99.90
5286;DHT22;2665;53.112;7.358;2024-03-22T06:41:42;10.10;99.90
5286;DHT22;2665;53.112;7.358;2024-03-22T06:44:08;10.00;99.90
5286;DHT22;2665;53.112;7.358;2024-03-22T06:46:37;10.00;99.90
5286;DHT22;2665;53.112;7.358;2024-03-22T06:49:03;10.00;99.90
5286;DHT22;2665;53.112;7.358;2024-03-22T06:51:28;10.00;99.90
5286;DHT22;2665;53.112;7.358;2024-03-22T06:53:54;10.10;99.90
5286;DHT22;2665;53.112;7.358;2024-03-22T06:56:20;10.10;99.90
5286;DHT22;2665;53.112;7.358;2024-03-22T06:58:46;10.10;99.90
5286;DHT22;2665;53.112;7.358;2024-03-22T07:01:12;10.10;99.90
5286;DHT22;2665;53.112;7.358;2024-03-22T07:03:37;10.10;99.90
5286;DHT22;2665;53.112;7.358;2024-03-22T07:06:03;10.10;99.90
5286;DHT22;2665;53.112;7.358;2024-03-22T07:08:31;10.10;99.90
5286;DHT22;2665;53.112;7.358;2024-03-22T07:10:57;10.10;99.90
5286;DHT22;2665;53.112;7.358;2024-03-22T07:13:22;10.00;99.90
5286;DHT22;2665;53.112;7.358;2024-03-22T07:15:48;10.00;99.90
5286;DHT22;2665;53.112;7.358;2024-03-22T07:18:14;10.10;99.90
5286;DHT22;2665;53.112;7.358;2024-03-22T07:20:41;10.10;99.90
5286;DHT22;2665;53.112;7.358;2024-03-22T07:23:07;10.10;99.90
5286;DHT22;2665;53.112;7.358;2024-03-22T07:25:33;10.10;99.90
5286;DHT22;2665;53.112;7.358;2024-03-22T07:27:58;10.10;99.90
5286;DHT22;2665;53.112;7.358;2024-03-22T07:30:24;10.10;99.90
5286;DHT22;2665;53.112;7.358;2024-03-22T07:32:50;10.10;99.90
5286;DHT22;2665;53.112;7.358;2024-03-22T07:35:16;10.10;99.90
5286;DHT22;2665;53.112;7.358;2024-03-22T07:37:42;10.20;99.90
5286;DHT22;2665;53.112;7.358;2024-03-22T07:40:08;10.20;99.90
5286;DHT22;2665;53.112;7.358;2024-03-22T07:42:34;10.20;99.90
5286;DHT22;2665;53.112;7.358;2024-03-22T07:44:59;10.20;99.90
5286;DHT22;2665;53.112;7.358;2024-03-22T07:47:25;10.20;99.90
5286;DHT22;2665;53.112;7.358;2024-03-22T07:49:51;10.20;99.90
5286;DHT22;2665;53.112;7.358;2024-03-22T07:52:17;10.30;99.90
5286;DHT22;2665;53.112;7.358;2024-03-22T07:54:42;10.30;99.90
5286;DHT22;2665;53.112;7.358;2024-03-22T07:57:08;10.30;99.90
5286;DHT22;2665;53.112;7.358;2024-03-22T07:59:36;10.30;99.90
5286;DHT22;2665;53.112;7.358;2024-03-22T08:02:02;10.30;99.90
5286;DHT22;2665;53.112;7.358;2024-03-22T08:04:28;10.30;99.90
5286;DHT22;2665;53.112;7.358;2024-03-22T08:06:54;10.30;99.90
5286;DHT22;2665;53.112;7.358;2024-03-22T08:09:20;10.30;99.90
5286;DHT22;2665;53.112;7.358;2024-03-22T08:11:45;10.30;99.90
5286;DHT22;2665;53.112;7.358;2024-03-22T08:14:11;10.30;99.90
5286;DHT22;2665;53.112;7.358;2024-03-22T08:16:37;10.30;98.10
5286;DHT22;2665;53.112;7.358;2024-03-22T08:19:02;10.30;98.20
5286;DHT22;2665;53.112;7.358;2024-03-22T08:21:28;10.30;94.90
5286;DHT22;2665;53.112;7.358;2024-03-22T08:23:54;10.30;85.00
5286;DHT22;2665;53.112;7.358;2024-03-22T08:26:20;10.30;78.20
5286;DHT22;2665;53.112;7.358;2024-03-22T08:28:46;10.30;66.70
5286;DHT22;2665;53.112;7.358;2024-03-22T08:31:13;10.30;58.60
5286;DHT22;2665;53.112;7.358;2024-03-22T08:33:39;10.30;63.60
5286;DHT22;2665;53.112;7.358;2024-03-22T08:36:04;10.30;68.40
5286;DHT22;2665;53.112;7.358;2024-03-22T08:38:30;10.20;73.50
5286;DHT22;2665;53.112;7.358;2024-03-22T08:40:56;10.10;83.20
5286;DHT22;2665;53.112;7.358;2024-03-22T08:43:21;10.10;95.60
5286;DHT22;2665;53.112;7.358;2024-03-22T08:45:48;10.10;99.90
5286;DHT22;2665;53.112;7.358;2024-03-22T08:48:14;10.10;99.90
5286;DHT22;2665;53.112;7.358;2024-03-22T08:50:42;10.10;99.90
5286;DHT22;2665;53.112;7.358;2024-03-22T08:53:08;10.10;99.90
5286;DHT22;2665;53.112;7.358;2024-03-22T08:55:34;10.10;99.90
5286;DHT22;2665;53.112;7.358;2024-03-22T08:57:59;10.00;99.90
5286;DHT22;2665;53.112;7.358;2024-03-22T09:00:25;10.00;99.90
5286;DHT22;2665;53.112;7.358;2024-03-22T09:02:52;10.00;99.90
5286;DHT22;2665;53.112;7.358;2024-03-22T09:05:18;10.00;99.90
5286;DHT22;2665;53.112;7.358;2024-03-22T09:07:44;10.00;99.90
5286;DHT22;2665;53.112;7.358;2024-03-22T09:10:10;10.00;99.90
5286;DHT22;2665;53.112;7.358;2024-03-22T09:12:36;10.00;99.90
5286;DHT22;2665;53.112;7.358;2024-03-22T09:15:02;10.00;99.90
5286;DHT22;2665;53.112;7.358;2024-03-22T09:17:27;10.00;99.90
5286;DHT22;2665;53.112;7.358;2024-03-22T09:19:53;10.00;99.90
5286;DHT22;2665;53.112;7.358;2024-03-22T09:22:18;10.00;99.90
5286;DHT22;2665;53.112;7.358;2024-03-22T09:24:44;10.00;99.90
5286;DHT22;2665;53.112;7.358;2024-03-22T09:27:10;10.00;99.90
5286;DHT22;2665;53.112;7.358;2024-03-22T09:29:38;10.00;99.90
5286;DHT22;2665;53.112;7.358;2024-03-22T09:32:04;10.00;99.90
5286;DHT22;2665;53.112;7.358;2024-03-22T09:34:30;10.00;99.90
5286;DHT22;2665;53.112;7.358;2024-03-22T09:36:57;9.90;99.90
5286;DHT22;2665;53.112;7.358;2024-03-22T09:39:22;9.90;99.90
5286;DHT22;2665;53.112;7.358;2024-03-22T09:41:50;10.00;99.90
5286;DHT22;2665;53.112;7.358;2024-03-22T09:44:18;9.90;99.90
5286;DHT22;2665;53.112;7.358;2024-03-22T09:46:46;9.90;99.90
5286;DHT22;2665;53.112;7.358;2024-03-22T09:49:13;9.90;99.90
5286;DHT22;2665;53.112;7.358;2024-03-22T09:51:42;9.90;99.90
5286;DHT22;2665;53.112;7.358;2024-03-22T09:54:09;9.90;99.90
5286;DHT22;2665;53.112;7.358;2024-03-22T09:56:35;9.90;99.90
5286;DHT22;2665;53.112;7.358;2024-03-22T09:59:03;9.90;99.90
5286;DHT22;2665;53.112;7.358;2024-03-22T10:01:29;9.90;99.90
5286;DHT22;2665;53.112;7.358;2024-03-22T10:03:55;9.90;99.90
5286;DHT22;2665;53.112;7.358;2024-03-22T10:06:21;9.90;99.90
5286;DHT22;2665;53.112;7.358;2024-03-22T10:08:47;9.90;99.90
5286;DHT22;2665;53.112;7.358;2024-03-22T10:11:13;9.90;99.90
5286;DHT22;2665;53.112;7.358;2024-03-22T10:13:38;9.90;99.90
5286;DHT22;2665;53.112;7.358;2024-03-22T10:16:04;9.90;99.90
5286;DHT22;2665;53.112;7.358;2024-03-22T10:18:32;9.90;99.90
5286;DHT22;2665;53.112;7.358;2024-03-22T10:21:05;9.90;99.90
5286;DHT22;2665;53.112;7.358;2024-03-22T10:23:31;9.90;99.90
5286;DHT22;2665;53.112;7.358;2024-03-22T10:25:58;10.00;99.90
5286;DHT22;2665;53.112;7.358;2024-03-22T10:28:27;9.90;99.90
5286;DHT22;2665;53.112;7.358;2024-03-22T10:30:53;9.90;99.90
5286;DHT22;2665;53.112;7.358;2024-03-22T10:33:20;9.90;99.90
5286;DHT22;2665;53.112;7.358;2024-03-22T10:35:54;9.90;99.90
5286;DHT22;2665;53.112;7.358;2024-03-22T10:38:20;9.90;99.90
5286;DHT22;2665;53.112;7.358;2024-03-22T10:40:47;9.90;99.90
5286;DHT22;2665;53.112;7.358;2024-03-22T10:43:14;9.90;99.90
5286;DHT22;2665;53.112;7.358;2024-03-22T10:45:40;9.90;99.90
5286;DHT22;2665;53.112;7.358;2024-03-22T10:48:09;10.00;99.90
5286;DHT22;2665;53.112;7.358;2024-03-22T10:50:39;10.00;99.90
5286;DHT22;2665;53.112;7.358;2024-03-22T10:53:09;9.90;99.90
5286;DHT22;2665;53.112;7.358;2024-03-22T10:55:42;9.90;99.90
5286;DHT22;2665;53.112;7.358;2024-03-22T10:58:18;9.90;99.90
5286;DHT22;2665;53.112;7.358;2024-03-22T11:00:46;9.90;99.90
5286;DHT22;2665;53.112;7.358;2024-03-22T11:03:13;9.90;99.90
5286;DHT22;2665;53.112;7.358;2024-03-22T11:05:49;10.00;99.90
5286;DHT22;2665;53.112;7.358;2024-03-22T11:08:24;10.00;99.90
5286;DHT22;2665;53.112;7.358;2024-03-22T11:10:51;10.00;99.90
5286;DHT22;2665;53.112;7.358;2024-03-22T11:13:17;10.00;99.90
5286;DHT22;2665;53.112;7.358;2024-03-22T11:15:43;10.10;99.90
5286;DHT22;2665;53.112;7.358;2024-03-22T11:18:09;10.10;99.90
5286;DHT22;2665;53.112;7.358;2024-03-22T11:20:38;10.20;99.90
5286;DHT22;2665;53.112;7.358;2024-03-22T11:23:04;10.20;99.90
5286;DHT22;2665;53.112;7.358;2024-03-22T11:25:33;10.20;99.90
5286;DHT22;2665;53.112;7.358;2024-03-22T11:28:00;10.20;99.90
5286;DHT22;2665;53.112;7.358;2024-03-22T11:30:29;10.30;99.90
5286;DHT22;2665;53.112;7.358;2024-03-22T11:32:55;10.30;99.90
5286;DHT22;2665;53.112;7.358;2024-03-22T11:35:21;10.30;99.90
5286;DHT22;2665;53.112;7.358;2024-03-22T11:37:47;10.40;99.90
5286;DHT22;2665;53.112;7.358;2024-03-22T11:40:14;10.40;99.90
5286;DHT22;2665;53.112;7.358;2024-03-22T11:42:41;10.40;99.90
5286;DHT22;2665;53.112;7.358;2024-03-22T11:45:12;10.40;99.90
5286;DHT22;2665;53.112;7.358;2024-03-22T11:47:39;10.30;99.90
5286;DHT22;2665;53.112;7.358;2024-03-22T11:50:05;10.20;99.90
5286;DHT22;2665;53.112;7.358;2024-03-22T11:52:31;10.20;99.90
5286;DHT22;2665;53.112;7.358;2024-03-22T11:54:57;10.20;99.90
5286;DHT22;2665;53.112;7.358;2024-03-22T11:57:23;10.20;99.90
5286;DHT22;2665;53.112;7.358;2024-03-22T11:59:50;10.30;99.90
5286;DHT22;2665;53.112;7.358;2024-03-22T12:02:16;10.30;99.90
5286;DHT22;2665;53.112;7.358;2024-03-22T12:04:46;10.30;99.90
5286;DHT22;2665;53.112;7.358;2024-03-22T12:07:17;10.40;99.90
5286;DHT22;2665;53.112;7.358;2024-03-22T12:09:43;10.50;99.90
5286;DHT22;2665;53.112;7.358;2024-03-22T12:12:11;10.50;99.90
5286;DHT22;2665;53.112;7.358;2024-03-22T12:14:37;10.50;99.90
5286;DHT22;2665;53.112;7.358;2024-03-22T12:17:04;10.50;99.90
5286;DHT22;2665;53.112;7.358;2024-03-22T12:19:30;10.50;99.90
5286;DHT22;2665;53.112;7.358;2024-03-22T12:21:55;10.50;99.90
5286;DHT22;2665;53.112;7.358;2024-03-22T12:24:23;10.50;99.90
5286;DHT22;2665;53.112;7.358;2024-03-22T12:26:49;10.40;99.90
5286;DHT22;2665;53.112;7.358;2024-03-22T12:29:15;10.50;99.90
5286;DHT22;2665;53.112;7.358;2024-03-22T12:31:42;10.40;99.90
5286;DHT22;2665;53.112;7.358;2024-03-22T12:34:08;10.30;99.90
5286;DHT22;2665;53.112;7.358;2024-03-22T12:36:33;10.20;99.90
5286;DHT22;2665;53.112;7.358;2024-03-22T12:38:59;10.20;99.90
5286;DHT22;2665;53.112;7.358;2024-03-22T12:41:25;10.20;99.90
5286;DHT22;2665;53.112;7.358;2024-03-22T12:43:51;10.20;99.90
5286;DHT22;2665;53.112;7.358;2024-03-22T12:46:17;10.20;99.90
5286;DHT22;2665;53.112;7.358;2024-03-22T12:48:42;10.20;99.90
5286;DHT22;2665;53.112;7.358;2024-03-22T12:51:08;10.10;99.90
5286;DHT22;2665;53.112;7.358;2024-03-22T12:53:34;10.10;99.90
5286;DHT22;2665;53.112;7.358;2024-03-22T12:56:00;10.10;99.90
5286;DHT22;2665;53.112;7.358;2024-03-22T12:58:25;10.10;99.90
5286;DHT22;2665;53.112;7.358;2024-03-22T13:00:51;10.10;99.90
5286;DHT22;2665;53.112;7.358;2024-03-22T13:03:16;10.10;99.90
5286;DHT22;2665;53.112;7.358;2024-03-22T13:05:43;10.10;99.90
5286;DHT22;2665;53.112;7.358;2024-03-22T13:08:08;10.10;99.90
5286;DHT22;2665;53.112;7.358;2024-03-22T13:10:34;10.10;99.90
5286;DHT22;2665;53.112;7.358;2024-03-22T13:12:59;10.10;99.90
5286;DHT22;2665;53.112;7.358;2024-03-22T13:15:25;10.20;99.90
5286;DHT22;2665;53.112;7.358;2024-03-22T13:17:51;10.20;99.90
5286;DHT22;2665;53.112;7.358;2024-03-22T13:20:18;10.20;99.90
5286;DHT22;2665;53.112;7.358;2024-03-22T13:22:44;10.10;99.90
5286;DHT22;2665;53.112;7.358;2024-03-22T13:25:10;10.10;99.90
5286;DHT22;2665;53.112;7.358;2024-03-22T13:27:37;9.90;99.90
5286;DHT22;2665;53.112;7.358;2024-03-22T13:30:07;9.80;99.90
5286;DHT22;2665;53.112;7.358;2024-03-22T13:32:36;9.70;99.90
5286;DHT22;2665;53.112;7.358;2024-03-22T13:35:02;9.70;99.90
5286;DHT22;2665;53.112;7.358;2024-03-22T13:37:28;9.70;99.90
5286;DHT22;2665;53.112;7.358;2024-03-22T13:39:53;9.60;99.90
5286;DHT22;2665;53.112;7.358;2024-03-22T13:42:19;9.60;99.90
5286;DHT22;2665;53.112;7.358;2024-03-22T13:44:45;9.60;99.90
5286;DHT22;2665;53.112;7.358;2024-03-22T13:47:10;9.70;99.90
5286;DHT22;2665;53.112;7.358;2024-03-22T13:49:36;9.70;99.90
5286;DHT22;2665;53.112;7.358;2024-03-22T13:52:04;9.80;99.90
5286;DHT22;2665;53.112;7.358;2024-03-22T13:54:30;9.80;99.90
5286;DHT22;2665;53.112;7.358;2024-03-22T13:56:55;9.80;99.90
5286;DHT22;2665;53.112;7.358;2024-03-22T13:59:21;9.90;99.90
5286;DHT22;2665;53.112;7.358;2024-03-22T14:01:47;9.90;99.90
5286;DHT22;2665;53.112;7.358;2024-03-22T14:04:13;9.90;99.90
5286;DHT22;2665;53.112;7.358;2024-03-22T14:06:40;9.90;99.90
5286;DHT22;2665;53.112;7.358;2024-03-22T14:09:07;9.90;99.90
5286;DHT22;2665;53.112;7.358;2024-03-22T14:11:36;9.90;99.90
5286;DHT22;2665;53.112;7.358;2024-03-22T14:14:01;9.90;99.90
5286;DHT22;2665;53.112;7.358;2024-03-22T14:16:27;10.00;99.90
5286;DHT22;2665;53.112;7.358;2024-03-22T14:18:53;10.00;99.90
5286;DHT22;2665;53.112;7.358;2024-03-22T14:21:19;10.00;99.90
5286;DHT22;2665;53.112;7.358;2024-03-22T14:23:46;10.10;99.90
5286;DHT22;2665;53.112;7.358;2024-03-22T14:26:12;10.10;99.90
5286;DHT22;2665;53.112;7.358;2024-03-22T14:28:38;10.10;99.90
5286;DHT22;2665;53.112;7.358;2024-03-22T14:31:09;10.10;99.90
5286;DHT22;2665;53.112;7.358;2024-03-22T14:33:35;10.00;99.90
5286;DHT22;2665;53.112;7.358;2024-03-22T14:36:02;10.00;99.90
5286;DHT22;2665;53.112;7.358;2024-03-22T14:38:28;10.00;99.90
5286;DHT22;2665;53.112;7.358;2024-03-22T14:40:54;10.00;99.90
5286;DHT22;2665;53.112;7.358;2024-03-22T14:43:21;10.00;99.90
5286;DHT22;2665;53.112;7.358;2024-03-22T14:45:47;10.00;99.90
5286;DHT22;2665;53.112;7.358;2024-03-22T14:48:12;10.00;99.90
5286;DHT22;2665;53.112;7.358;2024-03-22T14:50:38;10.10;99.90
5286;DHT22;2665;53.112;7.358;2024-03-22T14:53:07;10.00;99.90
5286;DHT22;2665;53.112;7.358;2024-03-22T14:55:32;10.00;98.30
5286;DHT22;2665;53.112;7.358;2024-03-22T14:57:58;10.00;90.30
5286;DHT22;2665;53.112;7.358;2024-03-22T15:00:24;9.90;87.20
5286;DHT22;2665;53.112;7.358;2024-03-22T15:02:52;9.90;87.50
5286;DHT22;2665;53.112;7.358;2024-03-22T15:05:18;9.90;87.90
5286;DHT22;2665;53.112;7.358;2024-03-22T15:07:44;9.80;93.80
5286;DHT22;2665;53.112;7.358;2024-03-22T15:10:09;9.80;97.10
5286;DHT22;2665;53.112;7.358;2024-03-22T15:12:35;9.80;96.60
5286;DHT22;2665;53.112;7.358;2024-03-22T15:15:01;9.80;97.50
5286;DHT22;2665;53.112;7.358;2024-03-22T15:17:26;9.70;95.80
5286;DHT22;2665;53.112;7.358;2024-03-22T15:19:52;9.70;85.00
5286;DHT22;2665;53.112;7.358;2024-03-22T15:22:18;9.70;73.50
5286;DHT22;2665;53.112;7.358;2024-03-22T15:24:46;9.70;61.80
5286;DHT22;2665;53.112;7.358;2024-03-22T15:27:12;9.70;54.10
5286;DHT22;2665;53.112;7.358;2024-03-22T15:29:38;9.70;36.90
5286;DHT22;2665;53.112;7.358;2024-03-22T15:32:04;9.70;14.30
5286;DHT22;2665;53.112;7.358;2024-03-22T15:34:30;9.70;1.00
5286;DHT22;2665;53.112;7.358;2024-03-22T15:36:56;9.70;1.00
5286;DHT22;2665;53.112;7.358;2024-03-22T15:39:22;9.80;1.00
5286;DHT22;2665;53.112;7.358;2024-03-22T15:41:51;9.70;99.90
5286;DHT22;2665;53.112;7.358;2024-03-22T15:44:17;9.70;99.90
5286;DHT22;2665;53.112;7.358;2024-03-22T15:46:42;9.60;1.00
5286;DHT22;2665;53.112;7.358;2024-03-22T15:49:08;9.60;91.40
5286;DHT22;2665;53.112;7.358;2024-03-22T15:51:34;9.60;1.00
5286;DHT22;2665;53.112;7.358;2024-03-22T15:53:59;9.50;99.90
5286;DHT22;2665;53.112;7.358;2024-03-22T15:56:25;9.60;99.90
5286;DHT22;2665;53.112;7.358;2024-03-22T15:58:51;9.50;99.90
5286;DHT22;2665;53.112;7.358;2024-03-22T16:01:16;9.40;1.00
5286;DHT22;2665;53.112;7.358;2024-03-22T16:03:42;9.30;99.90
5286;DHT22;2665;53.112;7.358;2024-03-22T16:06:08;9.30;1.00